Rocky Comfort, Missouri
Current Conditions -  °F | °C
As of 8:35 AM on Thursday 30 Oct 2014 (Local Time) from KHFJ Reporting Station
Clear Clear  
Wind Chill: 11°   Ceiling: Unl
Heat Index: 11°   Visibility: 10mi
Dew Point:   Wind: 13mph
Humidity: 67%   Direction: 190°S
Pressure: 30.08"   Gusts: NA
Location:  36.75°N, 94.09°W
Report Text: KHFJ 301335Z AUTO 19011KT 10SM CLR 11/05 A3008 RMK AO2
Loading
Personal Weather Stations






























Interactive Weather Map
Tropical Storm Tracking
New forecast layout! Learn more

10-Day Weather Forecast

Advertisements
Track Severe Weather on mobile